LAN1AM EGYP-SAVC
Flight info
| Callsign | LAN1AM |
|---|---|
| Flight time | 1h 24m |
| Altitude | 40000 |
| Route | LOMIN UW50 DAGOK DCT BODUN BODUN1U |
| Aircraft | A359/H-SDE2E3GHIJ3J4J5LM1ORWXY/LB1D1 |
Departure
| Time | 2026-05-01 10:17 |
|---|---|
| Airport | Mount Pleasant Airport / RAF Mount Pleasant (EGYP) |
Arrival
| Time | 2026-05-01 11:41 |
|---|---|
| Airport | General Enrique Mosconi International Airport (SAVC) |
| Time | Latitude | Longitude | Altitude | Speed | Heading |
|---|---|---|---|---|---|
| 2026-05-01 10:09 | -51.82160 | -58.46800 | 199 ft | 0 kts | 291° |
| 2026-05-01 10:11 | -51.82160 | -58.46802 | 199 ft | 1 kts | 290° |
| 2026-05-01 10:11 | -51.82161 | -58.46808 | 227 ft | 0 kts | 273° |
| 2026-05-01 10:11 | -51.82162 | -58.46812 | 227 ft | 1 kts | 259° |
| 2026-05-01 10:12 | -51.82179 | -58.46829 | 231 ft | 3 kts | 181° |
| 2026-05-01 10:12 | -51.82183 | -58.46804 | 229 ft | 2 kts | 82° |
| 2026-05-01 10:12 | -51.82112 | -58.46602 | 230 ft | 11 kts | 59° |
| 2026-05-01 10:13 | -51.82063 | -58.46466 | 229 ft | 16 kts | 60° |
| 2026-05-01 10:13 | -51.82004 | -58.46297 | 227 ft | 17 kts | 70° |
| 2026-05-01 10:13 | -51.82016 | -58.46083 | 226 ft | 21 kts | 107° |
| 2026-05-01 10:14 | -51.82116 | -58.45504 | 235 ft | 32 kts | 105° |
| 2026-05-01 10:14 | -51.82177 | -58.45151 | 237 ft | 34 kts | 105° |
| 2026-05-01 10:14 | -51.82240 | -58.44778 | 234 ft | 36 kts | 105° |
| 2026-05-01 10:14 | -51.82304 | -58.44413 | 238 ft | 21 kts | 107° |
| 2026-05-01 10:15 | -51.82308 | -58.44238 | 241 ft | 16 kts | 75° |
| 2026-05-01 10:15 | -51.82273 | -58.44063 | 240 ft | 12 kts | 76° |
| 2026-05-01 10:15 | -51.82297 | -58.43917 | 237 ft | 15 kts | 127° |
| 2026-05-01 10:15 | -51.82352 | -58.43885 | 237 ft | 7 kts | 179° |
| 2026-05-01 10:16 | -51.82376 | -58.43910 | 237 ft | 2 kts | 252° |
| 2026-05-01 10:16 | -51.82374 | -58.43970 | 237 ft | 9 kts | 282° |
| 2026-05-01 10:16 | -51.82372 | -58.43980 | 237 ft | 0 kts | 282° |
| 2026-05-01 10:17 | -51.82358 | -58.44083 | 240 ft | 37 kts | 284° |
| 2026-05-01 10:17 | -51.81953 | -58.46443 | 572 ft | 148 kts | 285° |
| 2026-05-01 10:17 | -51.81664 | -58.48009 | 1572 ft | 144 kts | 284° |
| 2026-05-01 10:18 | -51.80970 | -58.51309 | 2683 ft | 175 kts | 284° |
| 2026-05-01 10:18 | -51.80514 | -58.53285 | 3076 ft | 199 kts | 286° |
| 2026-05-01 10:18 | -51.79974 | -58.55490 | 3486 ft | 223 kts | 287° |
| 2026-05-01 10:19 | -51.79390 | -58.57903 | 4148 ft | 236 kts | 287° |
| 2026-05-01 10:19 | -51.78799 | -58.60394 | 5013 ft | 239 kts | 286° |
| 2026-05-01 10:19 | -51.78285 | -58.62962 | 5914 ft | 239 kts | 276° |
| 2026-05-01 10:20 | -51.79083 | -58.67959 | 7765 ft | 241 kts | 234° |
| 2026-05-01 10:20 | -51.80131 | -58.70133 | 8599 ft | 250 kts | 234° |
| 2026-05-01 10:20 | -51.81195 | -58.72385 | 9580 ft | 250 kts | 235° |
| 2026-05-01 10:20 | -51.82239 | -58.74625 | 10595 ft | 250 kts | 235° |
| 2026-05-01 10:21 | -51.83289 | -58.76958 | 11164 ft | 266 kts | 241° |
| 2026-05-01 10:21 | -51.84140 | -58.83138 | 11964 ft | 305 kts | 264° |
| 2026-05-01 10:21 | -51.84343 | -58.86635 | 12553 ft | 318 kts | 264° |
| 2026-05-01 10:22 | -51.84682 | -58.93923 | 14056 ft | 331 kts | 270° |
| 2026-05-01 10:22 | -51.83415 | -59.01172 | 15537 ft | 349 kts | 300° |
| 2026-05-01 10:23 | -51.81821 | -59.04189 | 16284 ft | 357 kts | 312° |
| 2026-05-01 10:23 | -51.77919 | -59.09420 | 17763 ft | 370 kts | 320° |
| 2026-05-01 10:23 | -51.75830 | -59.11902 | 18232 ft | 377 kts | 321° |
| 2026-05-01 10:24 | -51.71601 | -59.16931 | 19659 ft | 382 kts | 320° |
| 2026-05-01 10:24 | -51.67319 | -59.22178 | 21003 ft | 390 kts | 319° |
| 2026-05-01 10:25 | -51.62977 | -59.27593 | 22323 ft | 399 kts | 320° |
| 2026-05-01 10:25 | -51.58549 | -59.33119 | 23553 ft | 406 kts | 320° |
| 2026-05-01 10:26 | -51.56301 | -59.35918 | 24136 ft | 409 kts | 320° |
| 2026-05-01 10:26 | -51.54043 | -59.38721 | 24731 ft | 411 kts | 320° |
| 2026-05-01 10:26 | -51.49512 | -59.44336 | 25867 ft | 417 kts | 320° |
| 2026-05-01 10:27 | -51.44869 | -59.50074 | 27031 ft | 423 kts | 320° |
| 2026-05-01 10:27 | -51.40174 | -59.55862 | 28175 ft | 428 kts | 320° |
| 2026-05-01 10:28 | -51.37807 | -59.58772 | 28740 ft | 431 kts | 320° |
| 2026-05-01 10:28 | -51.33016 | -59.64653 | 29751 ft | 437 kts | 320° |
| 2026-05-01 10:28 | -51.30597 | -59.67618 | 30143 ft | 440 kts | 320° |
| 2026-05-01 10:29 | -51.25692 | -59.73615 | 30895 ft | 446 kts | 320° |
| 2026-05-01 10:29 | -51.23250 | -59.76595 | 31278 ft | 449 kts | 320° |
| 2026-05-01 10:30 | -51.18256 | -59.82675 | 31991 ft | 454 kts | 320° |
| 2026-05-01 10:30 | -51.13197 | -59.88817 | 32607 ft | 460 kts | 320° |
| 2026-05-01 10:31 | -51.08074 | -59.95020 | 33232 ft | 465 kts | 319° |
| 2026-05-01 10:31 | -51.02919 | -60.01239 | 34005 ft | 462 kts | 320° |
| 2026-05-01 10:32 | -50.97838 | -60.07351 | 34687 ft | 462 kts | 319° |
| 2026-05-01 10:32 | -50.95269 | -60.10438 | 34962 ft | 463 kts | 319° |
| 2026-05-01 10:32 | -50.90132 | -60.16596 | 35558 ft | 463 kts | 319° |
| 2026-05-01 10:33 | -50.84984 | -60.22750 | 36108 ft | 464 kts | 319° |
| 2026-05-01 10:33 | -50.79836 | -60.28886 | 36694 ft | 463 kts | 319° |
| 2026-05-01 10:34 | -50.77258 | -60.31951 | 36962 ft | 464 kts | 319° |
| 2026-05-01 10:34 | -50.74680 | -60.35014 | 37210 ft | 464 kts | 319° |
| 2026-05-01 10:34 | -50.72127 | -60.38041 | 37471 ft | 464 kts | 319° |
| 2026-05-01 10:35 | -50.66958 | -60.44160 | 37963 ft | 465 kts | 319° |
| 2026-05-01 10:35 | -50.64365 | -60.47222 | 38180 ft | 465 kts | 319° |
| 2026-05-01 10:35 | -50.61772 | -60.50280 | 38381 ft | 465 kts | 319° |
| 2026-05-01 10:35 | -50.59186 | -60.53350 | 38547 ft | 464 kts | 318° |
| 2026-05-01 10:36 | -50.54488 | -60.60240 | 38886 ft | 461 kts | 312° |
| 2026-05-01 10:36 | -50.52234 | -60.63823 | 39067 ft | 461 kts | 311° |
| 2026-05-01 10:36 | -50.50001 | -60.67424 | 39231 ft | 461 kts | 311° |
| 2026-05-01 10:37 | -50.47766 | -60.71045 | 39388 ft | 461 kts | 311° |
| 2026-05-01 10:37 | -50.43322 | -60.78229 | 39538 ft | 461 kts | 311° |
| 2026-05-01 10:37 | -50.41086 | -60.81825 | 39539 ft | 461 kts | 311° |
| 2026-05-01 10:38 | -50.36596 | -60.89014 | 39542 ft | 461 kts | 311° |
| 2026-05-01 10:38 | -50.32107 | -60.96173 | 39545 ft | 461 kts | 311° |
| 2026-05-01 10:39 | -50.27611 | -61.03323 | 39541 ft | 461 kts | 311° |
| 2026-05-01 10:39 | -50.23135 | -61.10422 | 39547 ft | 460 kts | 311° |
| 2026-05-01 10:40 | -50.18627 | -61.17550 | 39550 ft | 460 kts | 311° |
| 2026-05-01 10:40 | -50.14123 | -61.24652 | 39550 ft | 460 kts | 311° |
| 2026-05-01 10:41 | -50.09614 | -61.31743 | 39533 ft | 460 kts | 311° |
| 2026-05-01 10:42 | -50.02872 | -61.42308 | 39554 ft | 460 kts | 311° |
| 2026-05-01 10:42 | -49.98358 | -61.49357 | 39554 ft | 460 kts | 312° |
| 2026-05-01 10:43 | -49.94591 | -61.55223 | 39556 ft | 460 kts | 312° |
| 2026-05-01 10:43 | -49.90074 | -61.62240 | 39556 ft | 460 kts | 312° |
| 2026-05-01 10:44 | -49.85542 | -61.69261 | 39556 ft | 460 kts | 312° |
| 2026-05-01 10:44 | -49.81001 | -61.76277 | 39563 ft | 462 kts | 312° |
| 2026-05-01 10:45 | -49.76440 | -61.83303 | 39563 ft | 462 kts | 312° |
| 2026-05-01 10:45 | -49.71876 | -61.90312 | 39562 ft | 462 kts | 312° |
| 2026-05-01 10:46 | -49.67311 | -61.97303 | 39564 ft | 462 kts | 312° |
| 2026-05-01 10:46 | -49.62741 | -62.04283 | 39567 ft | 462 kts | 312° |
| 2026-05-01 10:47 | -49.58192 | -62.11212 | 39569 ft | 462 kts | 312° |
| 2026-05-01 10:47 | -49.53602 | -62.18185 | 39570 ft | 462 kts | 312° |
| 2026-05-01 10:48 | -49.49019 | -62.25126 | 39574 ft | 462 kts | 312° |
| 2026-05-01 10:48 | -49.44468 | -62.32000 | 39577 ft | 462 kts | 313° |
| 2026-05-01 10:49 | -49.39883 | -62.38908 | 39575 ft | 462 kts | 313° |
| 2026-05-01 10:49 | -49.35283 | -62.45817 | 39574 ft | 462 kts | 313° |
| 2026-05-01 10:50 | -49.30710 | -62.52668 | 39576 ft | 462 kts | 313° |
| 2026-05-01 10:50 | -49.26118 | -62.59529 | 39578 ft | 462 kts | 313° |
| 2026-05-01 10:51 | -49.21509 | -62.66395 | 39582 ft | 462 kts | 313° |
| 2026-05-01 10:51 | -49.16904 | -62.73238 | 39585 ft | 462 kts | 313° |
| 2026-05-01 10:52 | -49.12280 | -62.80088 | 39586 ft | 461 kts | 313° |
| 2026-05-01 10:52 | -49.07699 | -62.86857 | 39589 ft | 461 kts | 313° |
| 2026-05-01 10:53 | -49.03084 | -62.93660 | 39592 ft | 461 kts | 313° |
| 2026-05-01 10:53 | -48.98468 | -63.00443 | 39596 ft | 461 kts | 313° |
| 2026-05-01 10:54 | -48.93843 | -63.07222 | 39604 ft | 461 kts | 313° |
| 2026-05-01 10:54 | -48.89215 | -63.13986 | 39588 ft | 461 kts | 313° |
| 2026-05-01 10:55 | -48.84588 | -63.20732 | 39584 ft | 461 kts | 313° |
| 2026-05-01 10:55 | -48.79984 | -63.27425 | 39603 ft | 461 kts | 313° |
| 2026-05-01 10:56 | -48.75353 | -63.34140 | 39607 ft | 461 kts | 313° |
| 2026-05-01 10:56 | -48.70718 | -63.40842 | 39606 ft | 461 kts | 313° |
| 2026-05-01 10:57 | -48.66075 | -63.47539 | 39598 ft | 460 kts | 313° |
| 2026-05-01 10:57 | -48.61428 | -63.54223 | 39608 ft | 460 kts | 313° |
| 2026-05-01 10:58 | -48.56805 | -63.60855 | 39605 ft | 460 kts | 313° |
| 2026-05-01 10:58 | -48.52151 | -63.67513 | 39611 ft | 460 kts | 313° |
| 2026-05-01 10:59 | -48.47493 | -63.74160 | 39615 ft | 460 kts | 313° |
| 2026-05-01 10:59 | -48.42837 | -63.80786 | 39618 ft | 460 kts | 313° |
| 2026-05-01 11:00 | -48.38178 | -63.87399 | 39624 ft | 460 kts | 313° |
| 2026-05-01 11:00 | -48.33542 | -63.93962 | 39623 ft | 460 kts | 313° |
| 2026-05-01 11:01 | -48.28878 | -64.00547 | 39620 ft | 460 kts | 313° |
| 2026-05-01 11:01 | -48.24209 | -64.07128 | 39624 ft | 460 kts | 313° |
| 2026-05-01 11:02 | -48.19543 | -64.13691 | 39623 ft | 460 kts | 313° |
| 2026-05-01 11:02 | -48.14868 | -64.20250 | 39632 ft | 460 kts | 313° |
| 2026-05-01 11:03 | -48.10224 | -64.26748 | 39636 ft | 460 kts | 313° |
| 2026-05-01 11:03 | -48.05540 | -64.33286 | 39639 ft | 460 kts | 313° |
| 2026-05-01 11:04 | -48.00852 | -64.39812 | 39637 ft | 460 kts | 313° |
| 2026-05-01 11:04 | -47.96165 | -64.46319 | 39631 ft | 460 kts | 313° |
| 2026-05-01 11:05 | -47.91474 | -64.52816 | 39649 ft | 460 kts | 313° |
| 2026-05-01 11:05 | -47.86803 | -64.59267 | 39654 ft | 460 kts | 313° |
| 2026-05-01 11:06 | -47.82103 | -64.65743 | 39658 ft | 460 kts | 313° |
| 2026-05-01 11:06 | -47.77403 | -64.72200 | 39650 ft | 460 kts | 313° |
| 2026-05-01 11:07 | -47.70344 | -64.81870 | 39653 ft | 460 kts | 313° |
| 2026-05-01 11:07 | -47.65663 | -64.88261 | 39656 ft | 460 kts | 313° |
| 2026-05-01 11:08 | -47.60953 | -64.94676 | 39658 ft | 460 kts | 314° |
| 2026-05-01 11:09 | -47.53870 | -65.04291 | 39674 ft | 460 kts | 314° |
| 2026-05-01 11:09 | -47.49173 | -65.10717 | 39671 ft | 458 kts | 310° |
| 2026-05-01 11:10 | -47.45687 | -65.18385 | 39679 ft | 450 kts | 293° |
| 2026-05-01 11:10 | -47.44367 | -65.22592 | 39671 ft | 450 kts | 292° |
| 2026-05-01 11:10 | -47.41778 | -65.31035 | 39687 ft | 451 kts | 292° |
| 2026-05-01 11:11 | -47.39190 | -65.39477 | 39685 ft | 451 kts | 292° |
| 2026-05-01 11:11 | -47.36600 | -65.47895 | 39694 ft | 451 kts | 292° |
| 2026-05-01 11:12 | -47.34000 | -65.56322 | 39701 ft | 451 kts | 292° |
| 2026-05-01 11:12 | -47.31412 | -65.64683 | 39696 ft | 451 kts | 292° |
| 2026-05-01 11:13 | -47.28805 | -65.73074 | 39648 ft | 451 kts | 292° |
| 2026-05-01 11:13 | -47.27496 | -65.77278 | 39444 ft | 451 kts | 293° |
| 2026-05-01 11:13 | -47.26184 | -65.81487 | 39235 ft | 452 kts | 293° |
| 2026-05-01 11:14 | -47.24870 | -65.85692 | 39011 ft | 452 kts | 293° |
| 2026-05-01 11:14 | -47.23554 | -65.89896 | 38797 ft | 452 kts | 293° |
| 2026-05-01 11:14 | -47.22237 | -65.94096 | 38582 ft | 452 kts | 293° |
| 2026-05-01 11:14 | -47.20919 | -65.98294 | 38365 ft | 452 kts | 293° |
| 2026-05-01 11:15 | -47.19600 | -66.02488 | 38099 ft | 452 kts | 293° |
| 2026-05-01 11:15 | -47.18280 | -66.06680 | 37823 ft | 452 kts | 293° |
| 2026-05-01 11:15 | -47.16957 | -66.10871 | 37560 ft | 452 kts | 293° |
| 2026-05-01 11:15 | -47.15647 | -66.15015 | 37308 ft | 452 kts | 293° |
| 2026-05-01 11:16 | -47.14320 | -66.19209 | 37061 ft | 452 kts | 293° |
| 2026-05-01 11:16 | -47.12988 | -66.23409 | 36810 ft | 453 kts | 294° |
| 2026-05-01 11:16 | -47.11654 | -66.27609 | 36558 ft | 453 kts | 294° |
| 2026-05-01 11:16 | -47.10320 | -66.31799 | 36327 ft | 453 kts | 293° |
| 2026-05-01 11:17 | -47.08978 | -66.36012 | 36090 ft | 455 kts | 294° |
| 2026-05-01 11:17 | -47.07635 | -66.40218 | 35845 ft | 457 kts | 294° |
| 2026-05-01 11:17 | -47.06285 | -66.44440 | 35601 ft | 457 kts | 294° |
| 2026-05-01 11:17 | -47.04948 | -66.48616 | 35358 ft | 458 kts | 294° |
| 2026-05-01 11:18 | -47.03592 | -66.52839 | 35137 ft | 458 kts | 294° |
| 2026-05-01 11:18 | -47.02235 | -66.57064 | 34908 ft | 458 kts | 294° |
| 2026-05-01 11:18 | -47.00871 | -66.61301 | 34670 ft | 459 kts | 294° |
| 2026-05-01 11:18 | -46.99508 | -66.65528 | 34450 ft | 459 kts | 294° |
| 2026-05-01 11:19 | -46.98143 | -66.69756 | 34230 ft | 459 kts | 294° |
| 2026-05-01 11:19 | -46.96778 | -66.73976 | 34007 ft | 460 kts | 294° |
| 2026-05-01 11:19 | -46.95404 | -66.78215 | 33781 ft | 460 kts | 294° |
| 2026-05-01 11:19 | -46.94031 | -66.82447 | 33534 ft | 460 kts | 294° |
| 2026-05-01 11:20 | -46.92674 | -66.86622 | 33261 ft | 460 kts | 294° |
| 2026-05-01 11:20 | -46.91286 | -66.90882 | 32494 ft | 458 kts | 294° |
| 2026-05-01 11:20 | -46.89911 | -66.95098 | 31621 ft | 459 kts | 294° |
| 2026-05-01 11:20 | -46.88551 | -66.99262 | 30786 ft | 460 kts | 294° |
| 2026-05-01 11:21 | -46.87176 | -67.03462 | 30145 ft | 456 kts | 294° |
| 2026-05-01 11:21 | -46.85808 | -67.07636 | 29436 ft | 452 kts | 294° |
| 2026-05-01 11:21 | -46.84455 | -67.11757 | 28768 ft | 447 kts | 294° |
| 2026-05-01 11:21 | -46.83114 | -67.15836 | 28140 ft | 442 kts | 294° |
| 2026-05-01 11:22 | -46.81787 | -67.19864 | 27491 ft | 437 kts | 294° |
| 2026-05-01 11:22 | -46.80479 | -67.23830 | 26884 ft | 432 kts | 294° |
| 2026-05-01 11:22 | -46.79180 | -67.27762 | 26270 ft | 428 kts | 294° |
| 2026-05-01 11:22 | -46.77892 | -67.31655 | 25658 ft | 424 kts | 294° |
| 2026-05-01 11:23 | -46.76611 | -67.35522 | 25082 ft | 421 kts | 294° |
| 2026-05-01 11:23 | -46.75342 | -67.39347 | 24472 ft | 418 kts | 294° |
| 2026-05-01 11:23 | -46.74078 | -67.43151 | 23857 ft | 415 kts | 294° |
| 2026-05-01 11:23 | -46.72822 | -67.46926 | 23226 ft | 413 kts | 294° |
| 2026-05-01 11:24 | -46.71572 | -67.50677 | 22587 ft | 409 kts | 294° |
| 2026-05-01 11:24 | -46.70351 | -67.54333 | 21992 ft | 404 kts | 293° |
| 2026-05-01 11:24 | -46.67228 | -67.61030 | 20845 ft | 402 kts | 315° |
| 2026-05-01 11:25 | -46.64902 | -67.63301 | 20225 ft | 404 kts | 332° |
| 2026-05-01 11:25 | -46.59381 | -67.64643 | 18940 ft | 410 kts | 5° |
| 2026-05-01 11:25 | -46.56625 | -67.63582 | 18286 ft | 413 kts | 21° |
| 2026-05-01 11:26 | -46.54171 | -67.61422 | 17555 ft | 414 kts | 39° |
| 2026-05-01 11:26 | -46.50406 | -67.55178 | 16201 ft | 408 kts | 46° |
| 2026-05-01 11:26 | -46.48232 | -67.52577 | 15521 ft | 404 kts | 30° |
| 2026-05-01 11:27 | -46.45769 | -67.50761 | 14859 ft | 400 kts | 22° |
| 2026-05-01 11:27 | -46.43224 | -67.49136 | 14190 ft | 398 kts | 22° |
| 2026-05-01 11:27 | -46.40686 | -67.47540 | 13520 ft | 396 kts | 22° |
| 2026-05-01 11:27 | -46.38160 | -67.45949 | 12824 ft | 393 kts | 22° |
| 2026-05-01 11:28 | -46.35665 | -67.44373 | 12152 ft | 389 kts | 22° |
| 2026-05-01 11:28 | -46.33188 | -67.42807 | 11480 ft | 386 kts | 22° |
| 2026-05-01 11:28 | -46.30740 | -67.41260 | 10905 ft | 382 kts | 22° |
| 2026-05-01 11:29 | -46.26071 | -67.38308 | 10604 ft | 350 kts | 22° |
| 2026-05-01 11:29 | -46.23918 | -67.36949 | 10462 ft | 336 kts | 22° |
| 2026-05-01 11:29 | -46.19798 | -67.34351 | 10194 ft | 310 kts | 22° |
| 2026-05-01 11:30 | -46.17833 | -67.33114 | 9987 ft | 307 kts | 22° |
| 2026-05-01 11:30 | -46.15879 | -67.31887 | 9621 ft | 305 kts | 22° |
| 2026-05-01 11:30 | -46.13938 | -67.30668 | 9229 ft | 304 kts | 22° |
| 2026-05-01 11:30 | -46.11995 | -67.29449 | 8850 ft | 303 kts | 22° |
| 2026-05-01 11:31 | -46.10090 | -67.28253 | 8487 ft | 302 kts | 23° |
| 2026-05-01 11:31 | -46.08162 | -67.27044 | 8122 ft | 301 kts | 23° |
| 2026-05-01 11:31 | -46.06249 | -67.25845 | 7760 ft | 299 kts | 23° |
| 2026-05-01 11:31 | -46.04342 | -67.24651 | 7396 ft | 298 kts | 23° |
| 2026-05-01 11:32 | -46.02447 | -67.23465 | 7041 ft | 296 kts | 23° |
| 2026-05-01 11:32 | -46.00532 | -67.22267 | 6672 ft | 299 kts | 23° |
| 2026-05-01 11:32 | -45.98647 | -67.21090 | 6357 ft | 298 kts | 23° |
| 2026-05-01 11:32 | -45.96760 | -67.19914 | 6098 ft | 294 kts | 23° |
| 2026-05-01 11:33 | -45.94879 | -67.18742 | 5804 ft | 296 kts | 23° |
| 2026-05-01 11:33 | -45.92994 | -67.17566 | 5510 ft | 293 kts | 24° |
| 2026-05-01 11:33 | -45.91154 | -67.16419 | 5328 ft | 283 kts | 24° |
| 2026-05-01 11:33 | -45.89384 | -67.15318 | 5200 ft | 272 kts | 24° |
| 2026-05-01 11:34 | -45.88224 | -67.14595 | 5100 ft | 265 kts | 24° |
| 2026-05-01 11:34 | -45.86563 | -67.13562 | 4974 ft | 256 kts | 24° |
| 2026-05-01 11:34 | -45.84973 | -67.12592 | 4827 ft | 248 kts | 21° |
| 2026-05-01 11:34 | -45.83321 | -67.12191 | 4589 ft | 232 kts | 352° |
| 2026-05-01 11:35 | -45.81868 | -67.12888 | 4265 ft | 212 kts | 325° |
| 2026-05-01 11:35 | -45.80620 | -67.13937 | 4012 ft | 206 kts | 322° |
| 2026-05-01 11:35 | -45.79398 | -67.15021 | 3877 ft | 205 kts | 322° |
| 2026-05-01 11:35 | -45.78197 | -67.16075 | 3742 ft | 206 kts | 322° |
| 2026-05-01 11:36 | -45.76972 | -67.17144 | 3615 ft | 205 kts | 323° |
| 2026-05-01 11:36 | -45.75802 | -67.18276 | 3471 ft | 200 kts | 312° |
| 2026-05-01 11:36 | -45.75140 | -67.19908 | 3333 ft | 184 kts | 274° |
| 2026-05-01 11:36 | -45.75207 | -67.21650 | 3154 ft | 172 kts | 248° |
| 2026-05-01 11:37 | -45.75489 | -67.23304 | 2946 ft | 172 kts | 250° |
| 2026-05-01 11:37 | -45.75710 | -67.24990 | 2744 ft | 172 kts | 252° |
| 2026-05-01 11:37 | -45.75923 | -67.26670 | 2559 ft | 172 kts | 251° |
| 2026-05-01 11:37 | -45.76138 | -67.28342 | 2355 ft | 170 kts | 251° |
| 2026-05-01 11:38 | -45.76350 | -67.29978 | 2186 ft | 160 kts | 252° |
| 2026-05-01 11:38 | -45.76540 | -67.31454 | 2001 ft | 142 kts | 251° |
| 2026-05-01 11:38 | -45.76709 | -67.32744 | 1899 ft | 125 kts | 250° |
| 2026-05-01 11:38 | -45.76881 | -67.33928 | 1660 ft | 118 kts | 249° |
| 2026-05-01 11:39 | -45.77050 | -67.35070 | 1550 ft | 117 kts | 250° |
| 2026-05-01 11:39 | -45.77169 | -67.36237 | 1455 ft | 119 kts | 254° |
| 2026-05-01 11:39 | -45.77271 | -67.37419 | 1246 ft | 118 kts | 251° |
| 2026-05-01 11:39 | -45.77459 | -67.38558 | 1078 ft | 117 kts | 246° |
| 2026-05-01 11:40 | -45.77652 | -67.39705 | 921 ft | 120 kts | 252° |
| 2026-05-01 11:40 | -45.77764 | -67.40864 | 684 ft | 116 kts | 255° |
| 2026-05-01 11:40 | -45.77928 | -67.41965 | 530 ft | 109 kts | 253° |
| 2026-05-01 11:40 | -45.78063 | -67.43014 | 379 ft | 105 kts | 257° |
| 2026-05-01 11:41 | -45.78187 | -67.44038 | 248 ft | 107 kts | 256° |
| 2026-05-01 11:41 | -45.78337 | -67.45136 | 138 ft | 117 kts | 260° |
| 2026-05-01 11:41 | -45.78477 | -67.46188 | 127 ft | 83 kts | 259° |
| 2026-05-01 11:41 | -45.78545 | -67.46691 | 134 ft | 37 kts | 259° |
| 2026-05-01 11:42 | -45.78589 | -67.47020 | 140 ft | 30 kts | 256° |
| 2026-05-01 11:42 | -45.78618 | -67.47230 | 148 ft | 7 kts | 257° |
| 2026-05-01 11:42 | -45.78627 | -67.47287 | 150 ft | 5 kts | 257° |
| 2026-05-01 11:42 | -45.78636 | -67.47306 | 150 ft | 1 kts | 224° |
| 2026-05-01 11:43 | -45.78637 | -67.47307 | 150 ft | 1 kts | 220° |
| 2026-05-01 11:43 | -45.78656 | -67.47319 | 151 ft | 4 kts | 192° |
| 2026-05-01 11:43 | -45.78696 | -67.47301 | 153 ft | 7 kts | 160° |
| 2026-05-01 11:44 | -45.78811 | -67.47243 | 155 ft | 12 kts | 160° |
| 2026-05-01 11:44 | -45.78900 | -67.47198 | 154 ft | 15 kts | 160° |
| 2026-05-01 11:44 | -45.78920 | -67.47166 | 154 ft | 4 kts | 91° |
| 2026-05-01 11:44 | -45.78918 | -67.47087 | 151 ft | 12 kts | 84° |
| 2026-05-01 11:45 | -45.78923 | -67.47026 | 148 ft | 2 kts | 144° |
| 2026-05-01 11:45 | -45.78944 | -67.47036 | 149 ft | 7 kts | 205° |
| 2026-05-01 11:45 | -45.78963 | -67.47083 | 151 ft | 2 kts | 280° |
| 2026-05-01 11:45 | -45.78956 | -67.47088 | 151 ft | 1 kts | 328° |
| 2026-05-01 11:46 | -45.78955 | -67.47088 | 151 ft | 0 kts | 340° |